Time;durP1;ratioP1;P1;durP2;ratioP2;P2;SDS_P1;SDS_P2;PMS_P1;PMS_P2;Temp;Humidity;BMP_temperature;BMP_pressure;BME280_temperature;BME280_humidity;BME280_pressure;Samples;Min_cycle;Max_cycle;Signal;HPM_P1;HPM_P2
2022/10/24 00:00:43;;;;;;;;;;;;;;;14.37;77.05;100316.47;5052171;28;20007;-30
2022/10/24 00:03:09;;;;;;;;;;;;;;;14.34;77.19;100308.59;5045148;28;20424;-32
2022/10/24 00:05:34;;;;;;;;;;;;;;;14.33;77.12;100309.53;5016564;28;19917;-31
2022/10/24 00:07:59;;;;;;;;;;;;;;;14.33;77.16;100308.66;5036602;28;19921;-32
2022/10/24 00:10:25;;;;;;;;;;;;;;;14.31;77.24;100310.50;5044796;28;19960;-32
2022/10/24 00:12:52;;;;;;;;;;;;;;;14.29;77.23;100317.63;5044521;28;20054;-31
2022/10/24 00:15:19;;;;;;;;;;;;;;;14.26;77.31;100331.84;5054138;28;20015;-31
2022/10/24 00:17:44;;;;;;;;;;;;;;;14.26;77.23;100323.91;5034417;28;19932;-31
2022/10/24 00:20:10;;;;;;;;;;;;;;;14.24;77.13;100315.97;5043151;28;19921;-32
2022/10/24 00:22:35;;;;;;;;;;;;;;;14.22;77.19;100316.94;5047252;28;19968;-32
2022/10/24 00:25:00;;;;;;;;;;;;;;;14.21;77.31;100325.81;5040490;28;19913;-32
2022/10/24 00:27:25;;;;;;;;;;;;;;;14.19;77.15;100317.91;5046974;28;19963;-32
2022/10/24 00:29:50;;;;;;;;;;;;;;;14.19;77.09;100331.19;5044178;28;19920;-31
2022/10/24 00:32:22;;;;;;;;;;;;;;;14.17;77.27;100318.88;5053422;28;19962;-31
2022/10/24 00:34:47;;;;;;;;;;;;;;;14.16;77.30;100331.25;5052359;28;19913;-31
2022/10/24 00:37:12;;;;;;;;;;;;;;;14.15;77.29;100342.78;5051694;28;19924;-31
2022/10/24 00:39:37;;;;;;;;;;;;;;;14.14;77.24;100334.88;5043869;28;19925;-31
2022/10/24 00:42:03;;;;;;;;;;;;;;;14.13;77.28;100338.44;5040381;28;20382;-31
2022/10/24 00:44:29;;;;;;;;;;;;;;;14.10;77.17;100347.34;5045774;28;19924;-32
2022/10/24 00:46:54;;;;;;;;;;;;;;;14.08;77.18;100347.38;5005256;28;19928;-30
2022/10/24 00:49:21;;;;;;;;;;;;;;;14.08;76.96;100346.53;5042350;28;20366;-31
2022/10/24 00:51:50;;;;;;;;;;;;;;;14.07;77.18;100360.72;5031192;28;19916;-30
2022/10/24 00:54:16;;;;;;;;;;;;;;;14.05;77.05;100350.16;5043441;28;20350;-30
2022/10/24 00:56:43;;;;;;;;;;;;;;;14.05;77.15;100351.91;5052272;28;20003;-31
2022/10/24 00:59:09;;;;;;;;;;;;;;;14.03;77.21;100351.06;5043843;28;19928;-31
2022/10/24 01:01:34;;;;;;;;;;;;;;;14.02;77.18;100349.34;5005914;28;19917;-30
2022/10/24 01:04:03;;;;;;;;;;;;;;;14.01;77.22;100334.34;5035300;28;19927;-30
2022/10/24 01:06:57;;;;;;;;;;;;;;;13.98;76.99;100330.88;5041356;28;19917;-30
2022/10/24 01:09:42;;;;;;;;;;;;;;;13.98;77.05;100333.53;5016311;28;19940;-30
2022/10/24 01:12:10;;;;;;;;;;;;;;;13.95;77.04;100322.16;5021995;28;19967;-30
2022/10/24 01:14:48;;;;;;;;;;;;;;;13.94;77.04;100334.53;5053840;28;20369;-31
2022/10/24 01:17:21;;;;;;;;;;;;;;;13.92;76.93;100331.06;5036611;28;19924;-31
2022/10/24 01:20:02;;;;;;;;;;;;;;;13.92;76.93;100320.47;5040925;28;19917;-32
2022/10/24 01:25:48;;;;;;;;;;;;;;;13.89;77.07;100325.84;5046841;28;19971;-31
2022/10/24 01:28:15;;;;;;;;;;;;;;;13.88;77.22;100340.03;5040700;28;20293;-32
2022/10/24 01:30:44;;;;;;;;;;;;;;;13.86;77.12;100331.22;5038890;28;19991;-32
2022/10/24 01:33:21;;;;;;;;;;;;;;;13.85;77.52;100342.75;5054080;28;19969;-32
2022/10/24 01:35:56;;;;;;;;;;;;;;;13.83;77.57;100329.53;5067756;28;19940;-30
2022/10/24 01:38:30;;;;;;;;;;;;;;;13.83;77.44;100323.34;5046339;28;19921;-32
2022/10/24 01:40:55;;;;;;;;;;;;;;;13.80;77.26;100313.72;5039028;28;20027;-31
2022/10/24 01:43:25;;;;;;;;;;;;;;;13.78;77.28;100318.22;5025274;28;20396;-31
2022/10/24 01:45:55;;;;;;;;;;;;;;;13.78;77.30;100317.34;5048486;28;19921;-30
2022/10/24 01:48:27;;;;;;;;;;;;;;;13.76;77.22;100316.50;5041447;28;20416;-32
2022/10/24 01:50:55;;;;;;;;;;;;;;;13.75;77.35;100313.00;5037333;28;19921;-31
2022/10/24 01:53:21;;;;;;;;;;;;;;;13.73;77.30;100320.97;5042357;28;19917;-30
2022/10/24 01:55:46;;;;;;;;;;;;;;;13.71;77.33;100325.44;5030559;28;20324;-31
2022/10/24 01:58:11;;;;;;;;;;;;;;;13.71;77.27;100322.78;5044537;28;19928;-30
2022/10/24 02:00:36;;;;;;;;;;;;;;;13.70;77.29;100315.75;5038932;28;19913;-31
2022/10/24 02:03:20;;;;;;;;;;;;;;;13.68;77.33;100316.72;5030866;28;19913;-31
2022/10/24 02:05:53;;;;;;;;;;;;;;;13.66;77.25;100319.41;5033782;28;19967;-32
2022/10/24 02:08:24;;;;;;;;;;;;;;;13.65;77.24;100315.03;5041261;28;19916;-30
2022/10/24 02:10:50;;;;;;;;;;;;;;;13.64;77.25;100315.06;5045458;28;19966;-31
2022/10/24 02:13:18;;;;;;;;;;;;;;;13.64;77.27;100321.22;5041984;28;19913;-31
2022/10/24 02:16:12;;;;;;;;;;;;;;;13.62;77.24;100322.19;5021386;28;20017;-32
2022/10/24 02:18:37;;;;;;;;;;;;;;;13.59;77.37;100325.78;5042185;28;19929;-31
2022/10/24 02:21:05;;;;;;;;;;;;;;;13.59;77.20;100325.78;5046107;28;19917;-32
2022/10/24 02:23:36;;;;;;;;;;;;;;;13.57;77.20;100324.97;5046648;28;20401;-31
2022/10/24 02:26:01;;;;;;;;;;;;;;;13.55;77.27;100330.31;5034861;28;19917;-31
2022/10/24 02:28:29;;;;;;;;;;;;;;;13.54;77.44;100333.00;5015254;28;19971;-31
2022/10/24 02:31:08;;;;;;;;;;;;;;;13.51;77.30;100319.84;5029346;28;19920;-31
2022/10/24 02:33:33;;;;;;;;;;;;;;;13.49;77.42;100317.22;5048396;28;19917;-31
2022/10/24 02:35:59;;;;;;;;;;;;;;;13.50;77.32;100318.09;5049267;28;20434;-31
2022/10/24 02:38:47;;;;;;;;;;;;;;;13.46;77.35;100312.84;5047299;28;19928;-32
2022/10/24 02:41:14;;;;;;;;;;;;;;;13.45;77.26;100311.13;5042963;28;20003;-31
2022/10/24 02:43:39;;;;;;;;;;;;;;;13.42;77.22;100305.91;5042544;28;20012;-31
2022/10/24 02:46:05;;;;;;;;;;;;;;;13.41;77.61;100298.84;5039111;28;20007;-32
2022/10/24 02:48:32;;;;;;;;;;;;;;;13.40;77.24;100290.97;5044487;28;19924;-31
2022/10/24 02:50:57;;;;;;;;;;;;;;;13.38;77.33;100288.34;5047177;28;20381;-31
2022/10/24 02:53:23;;;;;;;;;;;;;;;13.36;77.25;100290.16;5048314;28;19920;-31
2022/10/24 02:55:51;;;;;;;;;;;;;;;13.35;77.14;100288.44;5054533;28;19917;-31
2022/10/24 02:58:16;;;;;;;;;;;;;;;13.33;77.20;100284.94;5046868;28;20396;-32
2022/10/24 03:00:42;;;;;;;;;;;;;;;13.31;77.07;100290.28;5042770;28;20366;-31
2022/10/24 03:03:07;;;;;;;;;;;;;;;13.29;77.01;100284.16;5041186;28;19921;-31
2022/10/24 03:05:32;;;;;;;;;;;;;;;13.29;77.30;100293.88;5051943;28;20003;-31
2022/10/24 03:07:57;;;;;;;;;;;;;;;13.26;77.08;100302.78;5047125;28;19913;-31
2022/10/24 03:10:25;;;;;;;;;;;;;;;13.23;77.24;100308.16;5052942;28;19925;-31
2022/10/24 03:12:50;;;;;;;;;;;;;;;13.21;77.24;100308.19;5053079;28;20444;-31
2022/10/24 03:15:16;;;;;;;;;;;;;;;13.20;76.97;100311.75;5054662;28;20054;-31
2022/10/24 03:17:41;;;;;;;;;;;;;;;13.18;77.13;100304.75;5052322;28;19943;-31
2022/10/24 03:20:06;;;;;;;;;;;;;;;13.17;77.34;100303.03;5053002;28;20309;-32
2022/10/24 03:22:32;;;;;;;;;;;;;;;13.15;77.15;100315.44;5049462;28;19936;-32
2022/10/24 03:25:01;;;;;;;;;;;;;;;13.14;77.04;100311.06;5077351;28;19912;-32
2022/10/24 03:27:27;;;;;;;;;;;;;;;13.10;77.02;100307.59;5044741;28;19924;-32
2022/10/24 03:29:52;;;;;;;;;;;;;;;13.09;77.15;100304.09;5050912;28;20285;-32
2022/10/24 03:32:17;;;;;;;;;;;;;;;13.07;76.98;100299.72;5045041;28;19917;-32
2022/10/24 03:34:42;;;;;;;;;;;;;;;13.04;77.08;100300.69;5054300;28;19916;-32
2022/10/24 03:37:07;;;;;;;;;;;;;;;13.04;77.32;100302.47;5049839;28;19928;-31
2022/10/24 03:39:33;;;;;;;;;;;;;;;13.02;77.26;100309.56;5046250;28;19927;-32
2022/10/24 03:41:58;;;;;;;;;;;;;;;13.00;77.11;100311.41;5038776;28;19924;-32
2022/10/24 03:44:23;;;;;;;;;;;;;;;12.98;77.08;100321.16;5048894;28;19921;-32
2022/10/24 03:46:49;;;;;;;;;;;;;;;12.97;77.04;100322.91;5052461;28;19920;-31
2022/10/24 03:49:14;;;;;;;;;;;;;;;12.95;77.13;100324.75;5039266;28;19921;-32
2022/10/24 03:51:39;;;;;;;;;;;;;;;12.91;77.18;100321.28;5036312;28;19940;-32
2022/10/24 03:54:04;;;;;;;;;;;;;;;12.91;77.19;100317.78;5052704;28;20418;-32
2022/10/24 03:56:29;;;;;;;;;;;;;;;12.89;77.27;100319.59;5052264;28;20385;-32
2022/10/24 03:58:55;;;;;;;;;;;;;;;12.86;77.04;100323.19;5056773;28;19917;-32
2022/10/24 04:01:20;;;;;;;;;;;;;;;12.85;77.05;100332.03;5055173;28;19913;-32
2022/10/24 04:03:46;;;;;;;;;;;;;;;12.83;77.09;100328.53;5053763;28;19917;-31
2022/10/24 04:06:11;;;;;;;;;;;;;;;12.82;76.97;100337.41;5054213;28;19916;-32
2022/10/24 04:08:37;;;;;;;;;;;;;;;12.78;76.92;100347.19;5042889;28;19913;-32
2022/10/24 04:11:11;;;;;;;;;;;;;;;12.77;76.91;100355.19;5041876;28;19917;-32
2022/10/24 04:13:36;;;;;;;;;;;;;;;12.78;77.14;100354.25;5053318;28;19917;-32
2022/10/24 04:16:02;;;;;;;;;;;;;;;12.75;77.15;100346.38;5038535;28;19920;-32
2022/10/24 04:18:27;;;;;;;;;;;;;;;12.73;77.07;100348.22;5034953;28;19927;-31
2022/10/24 04:20:52;;;;;;;;;;;;;;;12.70;76.99;100339.44;5016781;28;19917;-32
2022/10/24 04:23:17;;;;;;;;;;;;;;;12.69;77.05;100343.00;5023298;28;19913;-31
2022/10/24 04:25:44;;;;;;;;;;;;;;;12.68;77.10;100332.44;5036226;28;19924;-32
2022/10/24 04:28:10;;;;;;;;;;;;;;;12.66;77.12;100326.31;5053407;28;20007;-32
2022/10/24 04:30:35;;;;;;;;;;;;;;;12.64;77.28;100302.53;5038441;28;19999;-32
2022/10/24 04:33:00;;;;;;;;;;;;;;;12.61;77.08;100305.25;5047623;28;20007;-32
2022/10/24 04:35:25;;;;;;;;;;;;;;;12.60;77.27;100294.72;5046308;28;20364;-32
2022/10/24 04:37:51;;;;;;;;;;;;;;;12.60;77.35;100292.06;5049502;28;20424;-32
2022/10/24 04:40:16;;;;;;;;;;;;;;;12.60;77.29;100294.72;5051253;28;20270;-31
2022/10/24 04:42:41;;;;;;;;;;;;;;;12.58;77.09;100292.09;5035359;28;19913;-32
2022/10/24 04:45:07;;;;;;;;;;;;;;;12.56;77.39;100289.50;5035882;28;19916;-32
2022/10/24 04:47:32;;;;;;;;;;;;;;;12.55;77.34;100287.75;5048840;28;19913;-32
2022/10/24 04:50:00;;;;;;;;;;;;;;;12.54;77.35;100279.84;5054075;28;19917;-32
2022/10/24 04:52:25;;;;;;;;;;;;;;;12.51;77.21;100267.56;5044462;28;19917;-32
2022/10/24 04:54:52;;;;;;;;;;;;;;;12.51;77.09;100269.34;5057005;28;20008;-32
2022/10/24 04:57:17;;;;;;;;;;;;;;;12.49;77.24;100260.56;5039112;28;20259;-31
2022/10/24 04:59:42;;;;;;;;;;;;;;;12.47;77.00;100272.97;5045787;28;20046;-31
2022/10/24 05:02:08;;;;;;;;;;;;;;;12.47;77.16;100267.69;5036930;28;20297;-32
2022/10/24 05:04:33;;;;;;;;;;;;;;;12.43;77.11;100273.03;5049954;28;19912;-32
2022/10/24 05:06:58;;;;;;;;;;;;;;;12.42;77.12;100279.25;5068344;28;20010;-32
2022/10/24 05:09:23;;;;;;;;;;;;;;;12.41;77.08;100274.84;5056675;28;19939;-32
2022/10/24 05:11:49;;;;;;;;;;;;;;;12.39;77.15;100276.66;5050545;28;20004;-31
2022/10/24 05:14:14;;;;;;;;;;;;;;;12.38;77.09;100280.22;5032895;28;20037;-31
2022/10/24 05:16:39;;;;;;;;;;;;;;;12.38;77.18;100280.22;5033815;28;20011;-31
2022/10/24 05:19:04;;;;;;;;;;;;;;;12.36;76.87;100279.38;5032969;28;20362;-30
2022/10/24 05:21:32;;;;;;;;;;;;;;;12.35;76.99;100282.94;5040989;28;19924;-31
2022/10/24 05:23:58;;;;;;;;;;;;;;;12.35;76.97;100288.22;5049218;28;19917;-32
2022/10/24 05:26:24;;;;;;;;;;;;;;;12.33;76.88;100287.38;5053352;28;19917;-32
2022/10/24 05:28:49;;;;;;;;;;;;;;;12.32;77.01;100289.16;5054204;28;19916;-32
2022/10/24 05:31:14;;;;;;;;;;;;;;;12.32;77.13;100296.22;5059292;28;19920;-32
2022/10/24 05:33:39;;;;;;;;;;;;;;;12.32;77.13;100291.81;5072849;28;19912;-32
2022/10/24 05:36:05;;;;;;;;;;;;;;;12.30;76.91;100296.25;5073757;28;19913;-32
2022/10/24 05:38:30;;;;;;;;;;;;;;;12.31;77.13;100294.47;5060630;28;20266;-32
2022/10/24 05:40:55;;;;;;;;;;;;;;;12.29;77.30;100286.59;5052920;28;19912;-32
2022/10/24 05:43:21;;;;;;;;;;;;;;;12.31;77.31;100300.63;5018960;28;19917;-32
2022/10/24 05:45:46;;;;;;;;;;;;;;;12.31;77.06;100297.13;5066441;28;19916;-32
2022/10/24 05:48:12;;;;;;;;;;;;;;;12.31;77.47;100294.47;5073642;28;20375;-32
2022/10/24 05:50:37;;;;;;;;;;;;;;;12.29;77.23;100299.81;5061153;28;19917;-31
2022/10/24 05:53:02;;;;;;;;;;;;;;;12.29;77.40;100296.28;5052707;28;19913;-32
2022/10/24 05:55:29;;;;;;;;;;;;;;;12.28;77.41;100298.03;5053469;28;20266;-32
2022/10/24 05:57:54;;;;;;;;;;;;;;;12.28;77.24;100298.03;5069317;28;20430;-32
2022/10/24 06:00:20;;;;;;;;;;;;;;;12.28;77.18;100299.84;5067437;28;20442;-32
2022/10/24 06:02:45;;;;;;;;;;;;;;;12.25;77.14;100300.78;5052437;28;20401;-32
2022/10/24 06:05:10;;;;;;;;;;;;;;;12.26;77.01;100298.97;5052619;28;19916;-32
2022/10/24 06:07:36;;;;;;;;;;;;;;;12.25;77.48;100289.31;5050249;28;19942;-32
2022/10/24 06:10:05;;;;;;;;;;;;;;;12.24;77.35;100285.78;5054413;28;19912;-32
2022/10/24 06:12:30;;;;;;;;;;;;;;;12.24;77.53;100282.31;5072554;28;19912;-32
2022/10/24 06:14:56;;;;;;;;;;;;;;;12.26;77.70;100285.75;5068317;28;19962;-32
2022/10/24 06:17:21;;;;;;;;;;;;;;;12.24;77.74;100299.00;5058273;28;19943;-31
2022/10/24 06:19:48;;;;;;;;;;;;;;;12.25;77.64;100315.75;5071972;28;20037;-32
2022/10/24 06:22:13;;;;;;;;;;;;;;;12.26;77.45;100312.19;5072217;28;19919;-32
2022/10/24 06:24:38;;;;;;;;;;;;;;;12.27;77.58;100308.69;5072244;28;20015;-32
2022/10/24 06:27:04;;;;;;;;;;;;;;;12.28;77.63;100305.13;5059917;28;19966;-32
2022/10/24 06:29:29;;;;;;;;;;;;;;;12.28;77.71;100305.13;5047275;28;19971;-32
2022/10/24 06:31:55;;;;;;;;;;;;;;;12.29;77.68;100305.09;5056276;28;19960;-32
2022/10/24 06:34:29;;;;;;;;;;;;;;;12.30;77.66;100313.88;5056471;28;19913;-32
2022/10/24 06:36:54;;;;;;;;;;;;;;;12.30;77.63;100321.81;5055188;28;20011;-32
2022/10/24 06:39:20;;;;;;;;;;;;;;;12.30;77.69;100320.03;5054849;28;19980;-32
2022/10/24 06:42:04;;;;;;;;;;;;;;;12.31;77.79;100315.63;5076047;28;20011;-32
2022/10/24 06:44:29;;;;;;;;;;;;;;;12.30;77.90;100313.88;5078753;28;19912;-32
2022/10/24 06:46:55;;;;;;;;;;;;;;;12.30;77.99;100309.47;5078289;28;19921;-32
2022/10/24 06:49:20;;;;;;;;;;;;;;;12.31;77.67;100311.19;5075674;28;20291;-32
2022/10/24 06:51:45;;;;;;;;;;;;;;;12.31;77.92;100311.19;5075429;28;20254;-32
2022/10/24 06:57:13;;;;;;;;;;;;;;;12.33;77.97;100329.69;5058567;28;19967;-32
2022/10/24 06:59:38;;;;;;;;;;;;;;;12.34;78.01;100326.13;5055133;28;19921;-31
2022/10/24 07:02:04;;;;;;;;;;;;;;;12.35;77.88;100337.59;5057458;28;20004;-32
2022/10/24 07:04:29;;;;;;;;;;;;;;;12.36;77.68;100339.31;5055897;28;20328;-32
2022/10/24 07:06:54;;;;;;;;;;;;;;;12.37;77.60;100334.00;5055786;28;19923;-32
2022/10/24 07:09:20;;;;;;;;;;;;;;;12.39;77.86;100334.84;5057056;28;19919;-32
2022/10/24 07:11:45;;;;;;;;;;;;;;;12.40;77.83;100336.56;5041377;28;19917;-32
2022/10/24 07:14:10;;;;;;;;;;;;;;;12.42;77.97;100340.06;5035784;28;19924;-32
2022/10/24 07:16:36;;;;;;;;;;;;;;;12.43;77.79;100344.44;5034471;28;20337;-32
2022/10/24 07:19:01;;;;;;;;;;;;;;;12.45;77.98;100353.19;5034094;28;20378;-32
2022/10/24 07:21:28;;;;;;;;;;;;;;;12.47;78.18;100347.88;5036828;28;20386;-32
2022/10/24 07:23:53;;;;;;;;;;;;;;;12.49;78.43;100348.72;5034560;28;20004;-32
2022/10/24 07:26:19;;;;;;;;;;;;;;;12.53;78.72;100352.16;5035437;28;20054;-32
2022/10/24 07:28:46;;;;;;;;;;;;;;;12.55;78.69;100360.94;5037865;28;20015;-32
2022/10/24 07:31:13;;;;;;;;;;;;;;;12.56;79.59;100358.28;5070167;28;19949;-32
2022/10/24 07:33:39;;;;;;;;;;;;;;;12.62;79.58;100367.84;5075360;28;19913;-32
2022/10/24 07:36:04;;;;;;;;;;;;;;;12.66;79.40;100366.00;5056704;28;20285;-32
2022/10/24 07:38:29;;;;;;;;;;;;;;;12.70;79.28;100370.31;5023288;28;19980;-31
2022/10/24 07:40:55;;;;;;;;;;;;;;;12.73;79.54;100370.25;5042801;28;19926;-31
2022/10/24 07:43:20;;;;;;;;;;;;;;;12.78;79.47;100372.78;5075857;28;19995;-32
2022/10/24 07:45:45;;;;;;;;;;;;;;;12.81;79.31;100362.13;5075427;28;20431;-31
2022/10/24 07:48:10;;;;;;;;;;;;;;;12.85;79.47;100368.22;5075536;28;19916;-32
2022/10/24 07:50:41;;;;;;;;;;;;;;;12.88;79.64;100363.72;5064452;28;19912;-31
2022/10/24 07:53:07;;;;;;;;;;;;;;;12.92;79.12;100372.47;5057130;28;20322;-32
2022/10/24 07:55:32;;;;;;;;;;;;;;;12.94;79.06;100376.81;5056473;28;19920;-32
2022/10/24 07:57:57;;;;;;;;;;;;;;;13.00;79.22;100372.28;5059323;28;20445;-32
2022/10/24 08:00:23;;;;;;;;;;;;;;;13.03;79.25;100382.78;5064623;28;20353;-32
2022/10/24 08:02:49;;;;;;;;;;;;;;;13.06;79.37;100369.47;5073248;28;19927;-31
2022/10/24 08:05:14;;;;;;;;;;;;;;;13.08;79.07;100365.03;5077710;28;19959;-32
2022/10/24 08:07:39;;;;;;;;;;;;;;;13.12;79.09;100361.38;5079482;28;20003;-31
2022/10/24 08:10:08;;;;;;;;;;;;;;;13.15;78.96;100366.63;5079907;28;19923;-31
2022/10/24 08:12:33;;;;;;;;;;;;;;;13.19;79.73;100360.34;5074925;28;19999;-34
2022/10/24 08:14:58;;;;;;;;;;;;;;;13.23;79.82;100341.72;5075027;28;20016;-31
2022/10/24 08:17:23;;;;;;;;;;;;;;;13.26;80.12;100344.28;5079698;28;19955;-31
2022/10/24 08:19:49;;;;;;;;;;;;;;;13.28;80.39;100335.41;5074599;28;19978;-32
2022/10/24 08:22:15;;;;;;;;;;;;;;;13.32;80.55;100337.06;5073975;28;19924;-31
2022/10/24 08:24:42;;;;;;;;;;;;;;;13.35;80.89;100330.81;5067377;28;19916;-31
2022/10/24 08:27:07;;;;;;;;;;;;;;;13.39;80.92;100327.16;5067129;28;20435;-31
2022/10/24 08:29:32;;;;;;;;;;;;;;;13.45;81.21;100326.13;5074562;28;19912;-31
2022/10/24 08:31:57;;;;;;;;;;;;;;;13.49;81.13;100326.94;5073453;28;19916;-31
2022/10/24 08:34:22;;;;;;;;;;;;;;;13.53;81.84;100339.19;5055834;28;20239;-31
2022/10/24 08:36:48;;;;;;;;;;;;;;;13.56;82.02;100325.88;5074110;28;19913;-32
2022/10/24 08:39:14;;;;;;;;;;;;;;;13.60;83.00;100325.75;5051355;28;19921;-31
2022/10/24 08:41:45;;;;;;;;;;;;;;;13.65;83.04;100327.41;5012168;28;20436;-31
2022/10/24 08:44:29;;;;;;;;;;;;;;;13.69;83.55;100319.34;5074225;28;19912;-32
2022/10/24 08:47:13;;;;;;;;;;;;;;;13.73;83.75;100328.94;5071233;28;19920;-31
2022/10/24 08:49:43;;;;;;;;;;;;;;;13.79;83.85;100324.34;5073687;28;20326;-32
2022/10/24 08:52:14;;;;;;;;;;;;;;;13.83;83.54;100321.59;5055838;28;19912;-31
2022/10/24 08:54:40;;;;;;;;;;;;;;;13.88;83.81;100318.81;5057196;28;19969;-31
2022/10/24 08:57:09;;;;;;;;;;;;;;;13.92;83.76;100319.59;5074442;28;19916;-32
2022/10/24 08:59:34;;;;;;;;;;;;;;;13.97;83.86;100328.25;5056541;28;19917;-31
2022/10/24 09:02:20;;;;;;;;;;;;;;;14.00;83.61;100304.31;5055317;28;19924;-31
2022/10/24 09:04:50;;;;;;;;;;;;;;;14.05;83.81;100309.50;5073882;28;19935;-32
2022/10/24 09:07:17;;;;;;;;;;;;;;;14.10;83.92;100312.88;5074088;28;20296;-32
2022/10/24 09:09:45;;;;;;;;;;;;;;;14.15;84.33;100310.97;5044182;28;19919;-31
2022/10/24 09:12:12;;;;;;;;;;;;;;;14.20;84.28;100319.63;5055095;28;20314;-31
2022/10/24 09:14:39;;;;;;;;;;;;;;;14.23;84.62;100318.66;5072665;28;19912;-31
2022/10/24 09:19:33;;;;;;;;;;;;;;;14.31;84.57;100321.09;5047686;28;19932;-30
2022/10/24 09:21:59;;;;;;;;;;;;;;;14.34;84.24;100311.25;5032495;28;19917;-30
2022/10/24 09:24:30;;;;;;;;;;;;;;;14.39;83.73;100323.50;5031954;28;19963;-30
2022/10/24 09:26:55;;;;;;;;;;;;;;;14.42;83.41;100319.00;5033164;28;19913;-29
2022/10/24 09:29:21;;;;;;;;;;;;;;;14.45;83.36;100326.88;5035404;28;19925;-30
2022/10/24 09:31:48;;;;;;;;;;;;;;;14.49;83.49;100323.19;5051658;28;19923;-29
2022/10/24 09:34:15;;;;;;;;;;;;;;;14.54;83.56;100322.19;5053171;28;19948;-30
2022/10/24 09:36:40;;;;;;;;;;;;;;;14.58;83.81;100318.50;5052860;28;19913;-30
2022/10/24 09:39:24;;;;;;;;;;;;;;;14.61;83.93;100329.03;5051382;28;19990;-30
2022/10/24 09:41:49;;;;;;;;;;;;;;;14.63;83.79;100319.22;5047595;28;19924;-30
2022/10/24 09:44:31;;;;;;;;;;;;;;;14.67;83.53;100328.81;5051675;28;19920;-29
2022/10/24 09:46:56;;;;;;;;;;;;;;;14.69;83.66;100327.00;5051135;28;19913;-27
2022/10/24 09:49:22;;;;;;;;;;;;;;;14.74;83.62;100329.53;5052910;28;19936;-27
2022/10/24 09:51:59;;;;;;;;;;;;;;;14.79;83.81;100332.03;5052283;28;19923;-27
2022/10/24 09:54:26;;;;;;;;;;;;;;;14.80;83.91;100329.34;5052865;28;19913;-27
2022/10/24 09:56:56;;;;;;;;;;;;;;;14.84;83.66;100322.16;5039860;28;19921;-27
2022/10/24 09:59:42;;;;;;;;;;;;;;;14.87;83.77;100324.69;5031869;28;19964;-27
2022/10/24 10:02:26;;;;;;;;;;;;;;;14.90;83.75;100324.59;5047773;28;19920;-27
2022/10/24 10:05:01;;;;;;;;;;;;;;;14.93;83.61;100316.53;5032984;28;19920;-27
2022/10/24 10:07:26;;;;;;;;;;;;;;;14.97;83.77;100304.88;5032793;28;19920;-27
2022/10/24 10:09:53;;;;;;;;;;;;;;;15.00;83.77;100301.25;5031299;28;19916;-27
2022/10/24 10:12:36;;;;;;;;;;;;;;;15.04;83.91;100288.75;5039314;28;19971;-28
2022/10/24 10:15:03;;;;;;;;;;;;;;;15.07;83.99;100296.63;5030973;28;19924;-27
2022/10/24 10:17:30;;;;;;;;;;;;;;;15.10;84.08;100304.47;5055636;28;19917;-27
2022/10/24 10:19:55;;;;;;;;;;;;;;;15.13;83.98;100309.69;5074320;28;19923;-28
2022/10/24 10:22:22;;;;;;;;;;;;;;;15.16;84.04;100306.94;5092233;28;19916;-27
2022/10/24 10:24:49;;;;;;;;;;;;;;;15.19;84.01;100320.09;5092550;28;19920;-27
2022/10/24 10:27:43;;;;;;;;;;;;;;;15.23;83.95;100312.88;5092410;28;20280;-27
2022/10/24 10:30:12;;;;;;;;;;;;;;;15.26;83.74;100315.44;5087494;28;19924;-27
2022/10/24 10:32:42;;;;;;;;;;;;;;;15.29;84.02;100318.00;5069925;28;19925;-27
2022/10/24 10:35:13;;;;;;;;;;;;;;;15.32;83.77;100325.00;5070063;28;20003;-27
2022/10/24 10:37:40;;;;;;;;;;;;;;;15.36;83.65;100326.63;5054371;28;19917;-27
2022/10/24 10:40:08;;;;;;;;;;;;;;;15.38;83.79;100319.47;5054608;28;19935;-27
2022/10/24 10:42:54;;;;;;;;;;;;;;;15.41;83.65;100319.38;5072197;28;19919;-27
2022/10/24 10:45:33;;;;;;;;;;;;;;;15.45;83.87;100315.69;5072296;28;20337;-27
2022/10/24 10:48:17;;;;;;;;;;;;;;;15.48;83.48;100333.31;5072465;28;19986;-28
2022/10/24 10:50:45;;;;;;;;;;;;;;;15.50;83.42;100334.97;5072481;28;20297;-26
2022/10/24 10:53:23;;;;;;;;;;;;;;;15.52;83.69;100327.84;5053956;28;19919;-27
2022/10/24 10:56:07;;;;;;;;;;;;;;;15.57;83.78;100326.81;5054087;28;19913;-27
2022/10/24 10:58:51;;;;;;;;;;;;;;;15.60;83.47;100326.66;5070769;28;20009;-27
2022/10/24 11:01:35;;;;;;;;;;;;;;;15.63;83.52;100330.09;5087290;28;20369;-27
2022/10/24 11:04:35;;;;;;;;;;;;;;;15.67;83.36;100330.00;5076028;28;19916;-27
2022/10/24 11:07:07;;;;;;;;;;;;;;;15.70;83.18;100329.91;5076972;28;19916;-27
2022/10/24 11:09:33;;;;;;;;;;;;;;;15.73;83.41;100327.97;5056958;28;20326;-27
2022/10/24 11:12:00;;;;;;;;;;;;;;;15.75;83.51;100327.91;5088808;28;19940;-27
2022/10/24 11:14:44;;;;;;;;;;;;;;;15.78;83.13;100333.13;5090918;28;19961;-27
2022/10/24 11:17:11;;;;;;;;;;;;;;;15.81;83.71;100321.50;5075471;28;19927;-27
2022/10/24 11:19:49;;;;;;;;;;;;;;;15.84;83.36;100316.09;5075383;28;20435;-27
2022/10/24 11:22:16;;;;;;;;;;;;;;;15.87;83.59;100315.97;5075278;28;19977;-27
2022/10/24 11:24:43;;;;;;;;;;;;;;;15.90;84.06;100319.38;5040067;28;19917;-27
2022/10/24 11:27:09;;;;;;;;;;;;;;;15.94;84.02;100308.63;5057377;28;20419;-27
2022/10/24 11:29:36;;;;;;;;;;;;;;;15.97;84.08;100311.22;5090285;28;20308;-27
2022/10/24 11:32:05;;;;;;;;;;;;;;;16.00;84.08;100311.06;5088645;28;19962;-27
2022/10/24 11:34:42;;;;;;;;;;;;;;;16.02;84.11;100307.47;5075304;28;19913;-27
2022/10/24 11:37:12;;;;;;;;;;;;;;;16.07;84.43;100306.41;5074712;28;19916;-27
2022/10/24 11:39:43;;;;;;;;;;;;;;;16.10;84.54;100306.28;5076871;28;20019;-27
2022/10/24 11:42:30;;;;;;;;;;;;;;;16.14;84.61;100297.28;5076877;28;19912;-27
2022/10/24 11:44:56;;;;;;;;;;;;;;;16.21;84.62;100297.91;5076929;28;19965;-27
2022/10/24 11:47:24;;;;;;;;;;;;;;;16.26;85.11;100304.78;5089036;28;19916;-27
2022/10/24 11:50:05;;;;;;;;;;;;;;;16.32;85.69;100301.00;5056184;28;19913;-27
2022/10/24 11:52:31;;;;;;;;;;;;;;;16.38;85.92;100299.91;5074607;28;20011;-27
2022/10/24 11:55:15;;;;;;;;;;;;;;;16.42;86.18;100286.41;5069970;28;19924;-27
2022/10/24 11:57:43;;;;;;;;;;;;;;;16.49;85.71;100288.81;5094564;28;19918;-27
2022/10/24 12:00:14;;;;;;;;;;;;;;;16.56;86.61;100298.28;5095146;28;19912;-27
2022/10/24 12:02:45;;;;;;;;;;;;;;;16.62;86.03;100291.84;5059350;28;19912;-27
2022/10/24 12:05:20;;;;;;;;;;;;;;;16.70;86.62;100278.25;5074443;28;19920;-27
2022/10/24 12:07:48;;;;;;;;;;;;;;;16.77;87.04;100277.03;5084400;28;20011;-27
2022/10/24 12:10:28;;;;;;;;;;;;;;;16.82;86.29;100282.19;5073914;28;19948;-27
2022/10/24 12:12:53;;;;;;;;;;;;;;;16.91;86.06;100272.00;5074340;28;19916;-27
2022/10/24 12:15:27;;;;;;;;;;;;;;;16.97;85.68;100265.53;5074308;28;19913;-27
2022/10/24 12:17:58;;;;;;;;;;;;;;;17.05;85.11;100263.44;5074141;28;19924;-27
2022/10/24 12:20:24;;;;;;;;;;;;;;;17.13;84.92;100259.59;5074225;28;19917;-27
2022/10/24 12:22:49;;;;;;;;;;;;;;;17.18;84.88;100266.44;5089674;28;19912;-27
2022/10/24 12:25:19;;;;;;;;;;;;;;;17.25;85.25;100269.75;5092179;28;20380;-27
2022/10/24 12:27:44;;;;;;;;;;;;;;;17.28;84.25;100258.91;5058618;28;19913;-27
2022/10/24 12:30:13;;;;;;;;;;;;;;;17.35;83.70;100264.00;5076257;28;19912;-27
2022/10/24 12:32:51;;;;;;;;;;;;;;;17.40;83.34;100261.97;5075896;28;19912;-27
2022/10/24 12:35:25;;;;;;;;;;;;;;;17.44;82.72;100263.59;5076110;28;19939;-27
2022/10/24 12:37:50;;;;;;;;;;;;;;;17.48;82.32;100264.31;5091214;28;20005;-27
2022/10/24 12:40:40;;;;;;;;;;;;;;;17.50;81.97;100268.63;5094056;28;20051;-28
2022/10/24 12:43:15;;;;;;;;;;;;;;;17.55;81.76;100268.44;5075933;28;19912;-27
2022/10/24 12:45:40;;;;;;;;;;;;;;;17.57;81.46;100269.22;5060679;28;19916;-27
2022/10/24 12:48:12;;;;;;;;;;;;;;;17.60;81.49;100263.75;5072259;28;19912;-28
2022/10/24 12:50:38;;;;;;;;;;;;;;;17.60;81.22;100268.25;5072931;28;19948;-27